Time,TemperatureF,DewpointF,PressureIn,WindDirection,WindDirectionDegrees,WindSpeedMPH,WindSpeedGustMPH,Humidity,HourlyPrecipIn,Conditions,Clouds,dailyrainin,SoftwareType,DateUTC
2013-09-16 00:00:00,77.0,65.0,-100.00,SE,133,1.0,-999.0,68,0.00,,,0.00,,2013-09-16 05:00:00,
2013-09-16 00:44:00,77.0,65.0,-100.00,SE,133,1.0,-999.0,68,0.00,,,0.00,,2013-09-16 05:44:00,
2013-09-16 00:53:00,77.0,65.0,-100.00,SE,133,1.0,-999.0,68,0.00,,,0.00,,2013-09-16 05:53:00,
2013-09-16 01:00:00,77.0,66.0,-100.00,NE,38,1.0,-999.0,70,0.00,,,0.00,,2013-09-16 06:00:00,
2013-09-16 01:43:00,77.0,66.0,-100.00,NE,38,1.0,-999.0,70,0.00,,,0.00,,2013-09-16 06:43:00,
2013-09-16 01:52:00,77.0,66.0,-100.00,NE,38,1.0,-999.0,70,0.00,,,0.00,,2013-09-16 06:52:00,
2013-09-16 02:00:00,73.0,63.0,-100.00,South,170,2.0,-999.0,71,0.00,,,0.00,,2013-09-16 07:00:00,
2013-09-16 02:43:00,73.0,63.0,-100.00,South,170,2.0,-999.0,71,0.00,,,0.00,,2013-09-16 07:43:00,
2013-09-16 02:52:00,73.0,63.0,-100.00,South,170,2.0,-999.0,71,0.00,,,0.00,,2013-09-16 07:52:00,
2013-09-16 03:00:00,73.0,63.0,-100.00,SSE,155,1.0,-999.0,70,0.00,,,0.00,,2013-09-16 08:00:00,
2013-09-16 03:42:00,73.0,63.0,-100.00,SSE,155,1.0,-999.0,70,0.00,,,0.00,,2013-09-16 08:42:00,
2013-09-16 03:52:00,73.0,63.0,-100.00,SSE,155,1.0,-999.0,70,0.00,,,0.00,,2013-09-16 08:52:00,
2013-09-16 04:00:00,71.0,62.0,-100.00,SSE,160,3.0,-999.0,73,0.00,,,0.00,,2013-09-16 09:00:00,
2013-09-16 04:43:00,71.0,62.0,-100.00,SSE,160,3.0,-999.0,73,0.00,,,0.00,,2013-09-16 09:43:00,
2013-09-16 04:53:00,71.0,62.0,-100.00,SSE,160,3.0,-999.0,73,0.00,,,0.00,,2013-09-16 09:53:00,
2013-09-16 05:00:00,72.0,61.0,-100.00,SSE,147,1.0,-999.0,69,0.00,,,0.00,,2013-09-16 10:00:00,
2013-09-16 05:42:00,72.0,61.0,-100.00,SSE,147,1.0,-999.0,69,0.00,,,0.00,,2013-09-16 10:42:00,
2013-09-16 05:53:00,72.0,61.0,-100.00,SSE,147,1.0,-999.0,69,0.00,,,0.00,,2013-09-16 10:53:00,
2013-09-16 06:00:00,72.0,64.0,-100.00,NE,40,1.0,-999.0,76,0.00,,,0.00,,2013-09-16 11:00:00,
2013-09-16 06:42:00,72.0,64.0,-100.00,NE,40,1.0,-999.0,76,0.00,,,0.00,,2013-09-16 11:42:00,
2013-09-16 06:52:00,72.0,64.0,-100.00,NE,40,1.0,-999.0,76,0.00,,,0.00,,2013-09-16 11:52:00,
2013-09-16 07:00:00,71.0,64.0,-100.00,NNE,22,3.0,-999.0,78,0.00,,,0.00,,2013-09-16 12:00:00,
2013-09-16 07:42:00,71.0,64.0,-100.00,NNE,22,3.0,-999.0,78,0.00,,,0.00,,2013-09-16 12:42:00,
2013-09-16 07:52:00,71.0,64.0,-100.00,NNE,22,3.0,-999.0,78,0.00,,,0.00,,2013-09-16 12:52:00,
2013-09-16 08:00:00,70.0,62.0,-100.00,NNE,14,5.0,-999.0,76,0.00,,,0.00,,2013-09-16 13:00:00,
2013-09-16 08:42:00,70.0,62.0,-100.00,NNE,14,5.0,-999.0,76,0.00,,,0.00,,2013-09-16 13:42:00,
2013-09-16 08:52:00,70.0,62.0,-100.00,NNE,14,5.0,-999.0,76,0.00,,,0.00,,2013-09-16 13:52:00,
2013-09-16 10:00:00,81.0,60.0,-100.00,SE,133,4.0,-999.0,50,0.00,,,0.00,,2013-09-16 15:00:00,
2013-09-16 10:43:00,81.0,60.0,-100.00,SE,133,4.0,-999.0,50,0.00,,,0.00,,2013-09-16 15:43:00,
2013-09-16 10:53:00,81.0,60.0,-100.00,SE,133,4.0,-999.0,50,0.00,,,0.00,,2013-09-16 15:53:00,
2013-09-16 11:00:00,85.0,62.0,-100.00,South,173,3.0,-999.0,46,0.00,,,0.00,,2013-09-16 16:00:00,
2013-09-16 11:43:00,85.0,62.0,-100.00,South,173,3.0,-999.0,46,0.00,,,0.00,,2013-09-16 16:43:00,
2013-09-16 11:52:00,85.0,62.0,-100.00,South,173,3.0,-999.0,46,0.00,,,0.00,,2013-09-16 16:52:00,
2013-09-16 12:00:00,88.0,63.0,-100.00,ENE,66,0.0,-999.0,44,0.00,,,0.00,,2013-09-16 17:00:00,
2013-09-16 12:43:00,88.0,63.0,-100.00,ENE,66,0.0,-999.0,44,0.00,,,0.00,,2013-09-16 17:43:00,
2013-09-16 12:53:00,88.0,63.0,-100.00,ENE,66,0.0,-999.0,44,0.00,,,0.00,,2013-09-16 17:53:00,
2013-09-16 13:00:00,88.0,63.0,-100.00,NW,325,4.0,-999.0,44,0.00,,,0.00,,2013-09-16 18:00:00,
2013-09-16 13:42:00,88.0,63.0,-100.00,NW,325,4.0,-999.0,44,0.00,,,0.00,,2013-09-16 18:42:00,
2013-09-16 13:52:00,88.0,63.0,-100.00,NW,325,4.0,-999.0,44,0.00,,,0.00,,2013-09-16 18:52:00,
2013-09-16 14:00:00,90.0,63.0,-100.00,NNW,345,3.0,-999.0,41,0.00,,,0.00,,2013-09-16 19:00:00,
2013-09-16 14:42:00,90.0,63.0,-100.00,NNW,345,3.0,-999.0,41,0.00,,,0.00,,2013-09-16 19:42:00,
2013-09-16 14:53:00,90.0,63.0,-100.00,NNW,345,3.0,-999.0,41,0.00,,,0.00,,2013-09-16 19:53:00,
2013-09-16 15:00:00,92.0,62.0,-100.00,NNE,29,6.0,-999.0,38,0.00,,,0.00,,2013-09-16 20:00:00,
2013-09-16 15:43:00,92.0,62.0,-100.00,NNE,29,6.0,-999.0,38,0.00,,,0.00,,2013-09-16 20:43:00,
2013-09-16 15:52:00,92.0,62.0,-100.00,NNE,29,6.0,-999.0,38,0.00,,,0.00,,2013-09-16 20:52:00,
2013-09-16 16:00:00,93.0,61.0,-100.00,NE,34,7.0,-999.0,35,0.00,,,0.00,,2013-09-16 21:00:00,
2013-09-16 16:44:00,93.0,61.0,-100.00,NE,34,7.0,-999.0,35,0.00,,,0.00,,2013-09-16 21:44:00,
2013-09-16 16:56:00,93.0,61.0,-100.00,NE,34,7.0,-999.0,35,0.00,,,0.00,,2013-09-16 21:56:00,
2013-09-16 17:00:00,93.0,61.0,-100.00,ENE,58,7.0,-999.0,34,0.00,,,0.00,,2013-09-16 22:00:00,
2013-09-16 17:43:00,93.0,61.0,-100.00,ENE,58,7.0,-999.0,34,0.00,,,0.00,,2013-09-16 22:43:00,
2013-09-16 17:54:00,93.0,61.0,-100.00,ENE,58,7.0,-999.0,34,0.00,,,0.00,,2013-09-16 22:54:00,
2013-09-16 18:00:00,92.0,60.0,-100.00,East,81,7.0,-999.0,35,0.00,,,0.00,,2013-09-16 23:00:00,
2013-09-16 18:43:00,92.0,60.0,-100.00,East,81,7.0,-999.0,35,0.00,,,0.00,,2013-09-16 23:43:00,
2013-09-16 18:53:00,92.0,60.0,-100.00,East,81,7.0,-999.0,35,0.00,,,0.00,,2013-09-16 23:53:00,
2013-09-16 19:00:00,89.0,60.0,-100.00,NE,47,4.0,-999.0,37,0.00,,,0.00,,2013-09-17 00:00:00,
2013-09-16 19:42:00,89.0,60.0,-100.00,NE,47,4.0,-999.0,37,0.00,,,0.00,,2013-09-17 00:42:00,
2013-09-16 19:52:00,89.0,60.0,-100.00,NE,47,4.0,-999.0,37,0.00,,,0.00,,2013-09-17 00:52:00,
2013-09-16 20:00:00,86.0,61.0,-100.00,NNE,32,6.0,-999.0,43,0.00,,,0.00,,2013-09-17 01:00:00,
2013-09-16 20:42:00,86.0,61.0,-100.00,NNE,32,6.0,-999.0,43,0.00,,,0.00,,2013-09-17 01:42:00,
2013-09-16 20:52:00,86.0,61.0,-100.00,NNE,32,6.0,-999.0,43,0.00,,,0.00,,2013-09-17 01:52:00,
2013-09-16 21:00:00,84.0,61.0,-100.00,NE,37,5.0,-999.0,47,0.00,,,0.00,,2013-09-17 02:00:00,
2013-09-16 21:42:00,84.0,61.0,-100.00,NE,37,5.0,-999.0,47,0.00,,,0.00,,2013-09-17 02:42:00,
2013-09-16 21:52:00,84.0,61.0,-100.00,NE,37,5.0,-999.0,47,0.00,,,0.00,,2013-09-17 02:52:00,